Ocean Shores, WA

1:49 PM PDT on March 23, 2017 (GMT -0700)
Midwest Duck Lake | | Change Station

Elev 30 ft 46.97 °N, 124.15 °W | Updated 14 seconds ago

Overcast
Overcast
50.9 °F
Feels Like 50.9 °F
N
3.4
Wind Variable Wind from East
Gusts 4.9 mph

Today
High -- | Low -- °F
--% Chance of Precip.
Yesterday
High -- | Low -- °F
Precip. -- in
Pressure 29.99 in
Visibility 9.0 miles
Clouds Scattered Clouds 3900 ft
Mostly Cloudy 10000 ft
Dew Point 38 °F
Humidity 60%
Rainfall 0.02 in
Snow Depth Not available.
7:12 AM 7:34 PM
Waning Crescent, 21% visible
METAR KHQM 231953Z AUTO 09015KT 9SM SCT039 BKN100 11/06 A2998 RMK AO2 SLP155 T01060056
Pressure 29.99 in
Visibility 9.0 miles
Clouds Scattered Clouds 3900 ft
Mostly Cloudy 10000 ft
Dew Point 38 °F
Humidity 60%
Rainfall 0.02 in
Snow Depth Not available.
7:12 AM 7:34 PM
Waning Crescent, 21% visible
METAR KHQM 231953Z AUTO 09015KT 9SM SCT039 BKN100 11/06 A2998 RMK AO2 SLP155 T01060056

Get Severe Weather Alerts

Thanks for signing up!

Be on the lookout for a verification email in your inbox.

You'll start receiving the daily forecast at 8 AM.

×

10-Day Weather Forecast

Almanac

Astronomy

Mar. 23, 2017 Rise Set
Actual Time
Civil Twilight
Nautical Twilight
Astronomical Twilight
Moon
Length of Visible Light
Length of Day
Tomorrow will be .
, % of the Moon is Illuminated

Today's Extremes

State Highs State Lows

Community

WunderPhotos

Upload Photos

1,962,540 photos uploaded!

WunderBlog® & News

Nearby

Air Quality

  Air Quality AQ Index Pollutant
Not available.

Snow Depth

Station Depth Elevation

Earthquake Activity

City Distance Mag. Time & Date
Minimum magnitude displayed is 2.5.

Earthquake Activity

City Distance Mag. Time & Date
Minimum magnitude displayed is 2.5.

Coastal Water Temperatures

Place Temperature

Stations

Nearby Weather Stations

Station Location Temp. Windchill Dew Point Humidity Wind Precip. Elev Updated Type
                   

Watches & Warnings

There are currently no watches in effect.